LZSL

Sliač Airport

Sliač, Slovakia (Slovak Republic)
TAF LZSL 182000Z 1821/1906 02004KT CAVOK
Issued Valid From Valid To
Jan-18 @ 20:00 UTC
(46 minutes ago)
Jan-18 @ 21:00 UTC
(in 14 minutes)
Jan-19 @ 06:00 UTC
(in 9 hours)
Jan-18 @ 21:00 to Jan-19 @ 06:00
TAF LZSL 182000Z 1821/1906 02004KT CAVOK
Wind Visibility Clouds Conditions
20° at 4 knots 10,000+ meters
  • No significant clouds
TAF LZSL 182000Z 1821/1906 02004KT CAVOK
Issued Jan-18 @ 20:00 UTC
(46 minutes ago)
Valid From Jan-18 @ 21:00 UTC
(in 14 minutes)
Valid To Jan-19 @ 06:00 UTC
(in 9 hours)
Jan-18 @ 21:00 - Jan-19 @ 06:00
Wind Visibility
20° at 4 knots 10,000+ meters
Clouds
  • No significant clouds
Conditions